Decoded Metar for KOEB (COLDWATER in MI, USA) (IATA:OEB) | Meteo·Mobile Aviation Weather
aviador You're here:

KOEB Decoded Metar

COLDWATER in MI, USA
Report Time2018-11-19 05:35:00
UTC Time2018-11-19 05:54:36
Flight Rules vfr VFR
WindCalm
Visibility9999 m
Phenomena:N/A
Clouds:Scattered 005 Hf
CeilingNone
Temp00°C (ISA -13)
Dew Point00°C (100% RH)
AAT-2.0°C
QNH1021 hPa
Density Alt-823 ft
Elevation958 ft
Report Wrong Elevation
Raw Report
KOEB 190535Z AUTO 00000KT 7SM SCT005 00/00 A3014 RMK AO2
T00001001=

Extra information for KOEB:More info

Metar Taf Metar & Taf Last 4 Metars F.Rules Stats Wind Profile Meteogram Temp Stats Airport Information Weather charts Add Link Nearby VenuesMetar ALERT Operation Metar Decoded Social comments

AIRNAV info for KOEB